sensor_id;sensor_type;location;lat;lon;timestamp;pressure;altitude;pressure_sealevel;temperature;humidity
70072;BME280;57434;42.794;23.302;2023-05-24T00:00:25;95468.78;;;10.26;nan
70072;BME280;57434;42.794;23.302;2023-05-24T00:01:27;95483.56;;;10.26;nan
70072;BME280;57434;42.794;23.302;2023-05-24T00:02:29;95434.84;;;10.18;nan
70072;BME280;57434;42.794;23.302;2023-05-24T00:03:32;95459.50;;;10.14;nan
70072;BME280;57434;42.794;23.302;2023-05-24T00:04:34;95421.25;;;10.11;nan
70072;BME280;57434;42.794;23.302;2023-05-24T00:05:36;95410.25;;;10.07;nan
70072;BME280;57434;42.794;23.302;2023-05-24T00:06:38;95416.47;;;10.17;nan
70072;BME280;57434;42.794;23.302;2023-05-24T00:07:39;95471.50;;;10.40;nan
70072;BME280;57434;42.794;23.302;2023-05-24T00:08:41;95463.91;;;10.46;nan
70072;BME280;57434;42.794;23.302;2023-05-24T00:09:43;95363.66;;;9.84;nan
70072;BME280;57434;42.794;23.302;2023-05-24T00:10:45;95323.06;;;9.48;nan
70072;BME280;57434;42.794;23.302;2023-05-24T00:11:47;95462.31;;;10.40;nan
70072;BME280;57434;42.794;23.302;2023-05-24T00:12:49;95424.25;;;10.33;nan
70072;BME280;57434;42.794;23.302;2023-05-24T00:13:51;95452.34;;;10.39;nan
70072;BME280;57434;42.794;23.302;2023-05-24T00:14:53;95446.81;;;10.50;nan
70072;BME280;57434;42.794;23.302;2023-05-24T00:15:55;95455.75;;;10.48;nan
70072;BME280;57434;42.794;23.302;2023-05-24T00:16:56;95465.19;;;10.51;nan
70072;BME280;57434;42.794;23.302;2023-05-24T00:17:58;95331.19;;;9.72;nan
70072;BME280;57434;42.794;23.302;2023-05-24T00:19:00;95471.91;;;10.59;nan
70072;BME280;57434;42.794;23.302;2023-05-24T00:20:02;95436.94;;;10.29;nan
70072;BME280;57434;42.794;23.302;2023-05-24T00:21:07;95425.31;;;10.36;nan
70072;BME280;57434;42.794;23.302;2023-05-24T00:22:09;95439.03;;;10.34;nan
70072;BME280;57434;42.794;23.302;2023-05-24T00:23:11;95446.69;;;10.33;nan
70072;BME280;57434;42.794;23.302;2023-05-24T00:24:13;95330.53;;;9.57;nan
70072;BME280;57434;42.794;23.302;2023-05-24T00:25:15;95478.63;;;10.41;nan
70072;BME280;57434;42.794;23.302;2023-05-24T00:26:17;95351.00;;;9.68;nan
70072;BME280;57434;42.794;23.302;2023-05-24T00:27:19;95444.50;;;10.17;nan
70072;BME280;57434;42.794;23.302;2023-05-24T00:28:20;95449.63;;;10.18;nan
70072;BME280;57434;42.794;23.302;2023-05-24T00:29:22;95458.13;;;10.04;nan
70072;BME280;57434;42.794;23.302;2023-05-24T00:30:24;95332.03;;;9.52;nan
70072;BME280;57434;42.794;23.302;2023-05-24T00:31:26;95457.84;;;10.28;nan
70072;BME280;57434;42.794;23.302;2023-05-24T00:32:28;95436.47;;;10.04;nan
70072;BME280;57434;42.794;23.302;2023-05-24T00:33:30;95428.22;;;9.95;nan
70072;BME280;57434;42.794;23.302;2023-05-24T00:34:32;95331.22;;;9.26;nan
70072;BME280;57434;42.794;23.302;2023-05-24T00:35:34;95360.25;;;9.48;nan
70072;BME280;57434;42.794;23.302;2023-05-24T00:36:36;95420.03;;;9.66;nan
70072;BME280;57434;42.794;23.302;2023-05-24T00:37:38;95430.34;;;9.80;nan
70072;BME280;57434;42.794;23.302;2023-05-24T00:38:40;95332.41;;;9.19;nan
70072;BME280;57434;42.794;23.302;2023-05-24T00:39:41;95449.22;;;10.05;nan
70072;BME280;57434;42.794;23.302;2023-05-24T00:40:43;95403.81;;;9.75;nan
70072;BME280;57434;42.794;23.302;2023-05-24T00:41:45;95314.75;;;9.13;nan
70072;BME280;57434;42.794;23.302;2023-05-24T00:42:47;95405.25;;;9.91;nan
70072;BME280;57434;42.794;23.302;2023-05-24T00:43:49;95330.13;;;9.43;nan
70072;BME280;57434;42.794;23.302;2023-05-24T00:44:51;95431.63;;;10.05;nan
70072;BME280;57434;42.794;23.302;2023-05-24T00:47:18;95457.06;;;10.27;nan
70072;BME280;57434;42.794;23.302;2023-05-24T00:48:20;95309.38;;;9.30;nan
70072;BME280;57434;42.794;23.302;2023-05-24T00:49:22;95464.06;;;10.11;nan
70072;BME280;57434;42.794;23.302;2023-05-24T00:50:24;95415.91;;;9.87;nan
70072;BME280;57434;42.794;23.302;2023-05-24T00:51:26;95419.50;;;9.88;nan
70072;BME280;57434;42.794;23.302;2023-05-24T00:52:28;95327.09;;;9.21;nan
70072;BME280;57434;42.794;23.302;2023-05-24T00:53:31;95430.53;;;9.97;nan
70072;BME280;57434;42.794;23.302;2023-05-24T00:54:34;95463.28;;;10.11;nan
70072;BME280;57434;42.794;23.302;2023-05-24T00:55:36;95460.34;;;10.20;nan
70072;BME280;57434;42.794;23.302;2023-05-24T00:56:38;95284.25;;;9.15;nan
70072;BME280;57434;42.794;23.302;2023-05-24T00:57:40;95453.84;;;10.08;nan
70072;BME280;57434;42.794;23.302;2023-05-24T00:58:43;95459.59;;;10.25;nan
70072;BME280;57434;42.794;23.302;2023-05-24T00:59:45;95430.72;;;10.13;nan
70072;BME280;57434;42.794;23.302;2023-05-24T01:00:47;95413.00;;;10.02;nan
70072;BME280;57434;42.794;23.302;2023-05-24T01:01:50;95402.78;;;9.99;nan
70072;BME280;57434;42.794;23.302;2023-05-24T01:02:52;95421.59;;;10.18;nan
70072;BME280;57434;42.794;23.302;2023-05-24T01:03:54;95350.81;;;9.72;nan
70072;BME280;57434;42.794;23.302;2023-05-24T01:04:56;95383.16;;;9.73;nan
70072;BME280;57434;42.794;23.302;2023-05-24T01:06:01;95367.28;;;9.64;nan
70072;BME280;57434;42.794;23.302;2023-05-24T01:10:14;95428.84;;;9.59;nan
70072;BME280;57434;42.794;23.302;2023-05-24T01:17:07;95462.19;;;10.03;nan
70072;BME280;57434;42.794;23.302;2023-05-24T01:18:22;95464.22;;;10.02;nan
70072;BME280;57434;42.794;23.302;2023-05-24T01:21:25;95458.44;;;9.85;nan
70072;BME280;57434;42.794;23.302;2023-05-24T01:24:24;95459.59;;;9.99;nan
70072;BME280;57434;42.794;23.302;2023-05-24T01:25:44;95343.59;;;8.99;nan
70072;BME280;57434;42.794;23.302;2023-05-24T01:27:07;95347.72;;;9.03;nan
70072;BME280;57434;42.794;23.302;2023-05-24T01:28:10;95382.44;;;9.32;nan
70072;BME280;57434;42.794;23.302;2023-05-24T01:29:13;95327.78;;;8.96;nan
70072;BME280;57434;42.794;23.302;2023-05-24T01:30:16;95409.78;;;9.42;nan
70072;BME280;57434;42.794;23.302;2023-05-24T01:31:18;95400.91;;;9.44;nan
70072;BME280;57434;42.794;23.302;2023-05-24T01:32:20;95483.44;;;9.89;nan
70072;BME280;57434;42.794;23.302;2023-05-24T01:33:23;95332.19;;;9.02;nan
70072;BME280;57434;42.794;23.302;2023-05-24T01:34:26;95327.00;;;8.95;nan
70072;BME280;57434;42.794;23.302;2023-05-24T01:35:28;95461.88;;;9.75;nan
70072;BME280;57434;42.794;23.302;2023-05-24T01:36:30;95456.94;;;9.64;nan
70072;BME280;57434;42.794;23.302;2023-05-24T01:37:32;95434.38;;;9.53;nan
70072;BME280;57434;42.794;23.302;2023-05-24T01:38:34;95424.28;;;9.41;nan
70072;BME280;57434;42.794;23.302;2023-05-24T01:39:36;95334.56;;;8.69;nan
70072;BME280;57434;42.794;23.302;2023-05-24T01:40:39;95333.78;;;8.68;nan
70072;BME280;57434;42.794;23.302;2023-05-24T01:43:21;95461.59;;;9.52;nan
70072;BME280;57434;42.794;23.302;2023-05-24T01:44:46;95315.66;;;8.43;nan
70072;BME280;57434;42.794;23.302;2023-05-24T01:48:32;95476.88;;;9.31;nan
70072;BME280;57434;42.794;23.302;2023-05-24T01:49:39;95473.88;;;9.35;nan
70072;BME280;57434;42.794;23.302;2023-05-24T01:50:55;95468.88;;;9.44;nan
70072;BME280;57434;42.794;23.302;2023-05-24T01:52:08;95437.03;;;9.42;nan
70072;BME280;57434;42.794;23.302;2023-05-24T01:53:13;95412.97;;;9.30;nan
70072;BME280;57434;42.794;23.302;2023-05-24T01:54:20;95457.41;;;9.63;nan
70072;BME280;57434;42.794;23.302;2023-05-24T01:55:26;95472.69;;;9.62;nan
70072;BME280;57434;42.794;23.302;2023-05-24T01:56:29;95446.56;;;9.50;nan
70072;BME280;57434;42.794;23.302;2023-05-24T01:57:33;95391.38;;;9.15;nan
70072;BME280;57434;42.794;23.302;2023-05-24T01:58:36;95315.44;;;8.47;nan
70072;BME280;57434;42.794;23.302;2023-05-24T01:59:42;95313.22;;;8.51;nan
70072;BME280;57434;42.794;23.302;2023-05-24T02:00:45;95364.56;;;8.89;nan
70072;BME280;57434;42.794;23.302;2023-05-24T02:01:48;95456.78;;;9.53;nan
70072;BME280;57434;42.794;23.302;2023-05-24T02:02:50;95455.44;;;9.48;nan
70072;BME280;57434;42.794;23.302;2023-05-24T02:03:54;95354.91;;;8.90;nan
70072;BME280;57434;42.794;23.302;2023-05-24T02:04:56;95443.13;;;9.61;nan
70072;BME280;57434;42.794;23.302;2023-05-24T02:05:58;95332.59;;;8.95;nan
70072;BME280;57434;42.794;23.302;2023-05-24T02:06:59;95271.41;;;8.42;nan
70072;BME280;57434;42.794;23.302;2023-05-24T02:08:01;95305.81;;;8.68;nan
70072;BME280;57434;42.794;23.302;2023-05-24T02:09:03;95324.34;;;8.66;nan
70072;BME280;57434;42.794;23.302;2023-05-24T02:10:06;95426.41;;;9.26;nan
70072;BME280;57434;42.794;23.302;2023-05-24T02:11:08;95402.28;;;9.13;nan
70072;BME280;57434;42.794;23.302;2023-05-24T02:12:10;95463.78;;;9.43;nan
70072;BME280;57434;42.794;23.302;2023-05-24T02:13:12;95450.25;;;9.41;nan
70072;BME280;57434;42.794;23.302;2023-05-24T02:14:14;95456.69;;;9.47;nan
70072;BME280;57434;42.794;23.302;2023-05-24T02:15:16;95399.91;;;9.06;nan
70072;BME280;57434;42.794;23.302;2023-05-24T02:16:18;95301.19;;;8.45;nan
70072;BME280;57434;42.794;23.302;2023-05-24T02:17:20;95486.16;;;9.43;nan
70072;BME280;57434;42.794;23.302;2023-05-24T02:18:22;95423.41;;;9.14;nan
70072;BME280;57434;42.794;23.302;2023-05-24T02:19:24;95366.25;;;8.80;nan
70072;BME280;57434;42.794;23.302;2023-05-24T02:20:27;95481.50;;;9.34;nan
70072;BME280;57434;42.794;23.302;2023-05-24T02:21:29;95423.75;;;9.02;nan
70072;BME280;57434;42.794;23.302;2023-05-24T02:22:31;95446.16;;;9.02;nan
70072;BME280;57434;42.794;23.302;2023-05-24T02:23:33;95417.28;;;8.75;nan
70072;BME280;57434;42.794;23.302;2023-05-24T02:24:35;95414.41;;;8.70;nan
70072;BME280;57434;42.794;23.302;2023-05-24T02:25:37;95487.16;;;9.05;nan
70072;BME280;57434;42.794;23.302;2023-05-24T02:26:39;95273.75;;;7.79;nan
70072;BME280;57434;42.794;23.302;2023-05-24T02:27:41;95352.94;;;8.40;nan
70072;BME280;57434;42.794;23.302;2023-05-24T02:28:43;95407.09;;;8.58;nan
70072;BME280;57434;42.794;23.302;2023-05-24T02:29:45;95447.66;;;8.82;nan
70072;BME280;57434;42.794;23.302;2023-05-24T02:30:47;95444.81;;;8.97;nan
70072;BME280;57434;42.794;23.302;2023-05-24T02:31:49;95448.81;;;8.76;nan
70072;BME280;57434;42.794;23.302;2023-05-24T02:32:51;95457.25;;;8.96;nan
70072;BME280;57434;42.794;23.302;2023-05-24T02:33:56;95336.44;;;8.07;nan
70072;BME280;57434;42.794;23.302;2023-05-24T02:34:59;95404.19;;;8.67;nan
70072;BME280;57434;42.794;23.302;2023-05-24T02:36:01;95448.44;;;8.83;nan
70072;BME280;57434;42.794;23.302;2023-05-24T02:37:03;95357.81;;;8.25;nan
70072;BME280;57434;42.794;23.302;2023-05-24T02:38:05;95439.75;;;8.81;nan
70072;BME280;57434;42.794;23.302;2023-05-24T02:39:07;95426.59;;;8.52;nan
70072;BME280;57434;42.794;23.302;2023-05-24T02:40:10;95421.00;;;8.52;nan
70072;BME280;57434;42.794;23.302;2023-05-24T02:41:12;95453.75;;;8.66;nan
70072;BME280;57434;42.794;23.302;2023-05-24T02:42:14;95341.28;;;7.92;nan
70072;BME280;57434;42.794;23.302;2023-05-24T02:43:16;95319.97;;;7.80;nan
70072;BME280;57434;42.794;23.302;2023-05-24T02:44:18;95327.78;;;7.91;nan
70072;BME280;57434;42.794;23.302;2023-05-24T02:45:20;95352.03;;;8.14;nan
70072;BME280;57434;42.794;23.302;2023-05-24T02:46:22;95351.66;;;8.06;nan
70072;BME280;57434;42.794;23.302;2023-05-24T02:47:23;95424.25;;;8.65;nan
70072;BME280;57434;42.794;23.302;2023-05-24T02:48:25;95426.66;;;8.58;nan
70072;BME280;57434;42.794;23.302;2023-05-24T02:49:27;95354.25;;;8.10;nan
70072;BME280;57434;42.794;23.302;2023-05-24T02:50:29;95424.47;;;8.47;nan
70072;BME280;57434;42.794;23.302;2023-05-24T02:51:31;95445.84;;;8.65;nan
70072;BME280;57434;42.794;23.302;2023-05-24T02:52:33;95463.56;;;8.76;nan
70072;BME280;57434;42.794;23.302;2023-05-24T02:53:35;95319.13;;;7.89;nan
70072;BME280;57434;42.794;23.302;2023-05-24T02:54:37;95282.75;;;7.68;nan
70072;BME280;57434;42.794;23.302;2023-05-24T02:55:39;95342.59;;;8.11;nan
70072;BME280;57434;42.794;23.302;2023-05-24T02:56:41;95465.66;;;8.96;nan
70072;BME280;57434;42.794;23.302;2023-05-24T02:57:43;95396.50;;;8.47;nan
70072;BME280;57434;42.794;23.302;2023-05-24T02:58:44;95460.38;;;8.83;nan
70072;BME280;57434;42.794;23.302;2023-05-24T02:59:46;95432.25;;;8.72;nan
70072;BME280;57434;42.794;23.302;2023-05-24T03:00:49;95447.66;;;8.82;nan
70072;BME280;57434;42.794;23.302;2023-05-24T03:01:51;95449.19;;;8.83;nan
70072;BME280;57434;42.794;23.302;2023-05-24T03:02:53;95464.31;;;8.92;nan
70072;BME280;57434;42.794;23.302;2023-05-24T03:03:55;95456.44;;;8.75;nan
70072;BME280;57434;42.794;23.302;2023-05-24T03:04:57;95333.06;;;8.03;nan
70072;BME280;57434;42.794;23.302;2023-05-24T03:05:58;95410.41;;;8.41;nan
70072;BME280;57434;42.794;23.302;2023-05-24T03:07:00;95444.19;;;8.58;nan
70072;BME280;57434;42.794;23.302;2023-05-24T03:08:02;95438.34;;;8.56;nan
70072;BME280;57434;42.794;23.302;2023-05-24T03:09:04;95345.59;;;8.08;nan
70072;BME280;57434;42.794;23.302;2023-05-24T03:10:06;95449.78;;;8.73;nan
70072;BME280;57434;42.794;23.302;2023-05-24T03:11:08;95328.56;;;7.91;nan
70072;BME280;57434;42.794;23.302;2023-05-24T03:12:10;95453.94;;;8.63;nan
70072;BME280;57434;42.794;23.302;2023-05-24T03:13:12;95491.69;;;8.88;nan
70072;BME280;57434;42.794;23.302;2023-05-24T03:14:14;95470.81;;;8.83;nan
70072;BME280;57434;42.794;23.302;2023-05-24T03:15:16;95305.19;;;7.74;nan
70072;BME280;57434;42.794;23.302;2023-05-24T03:16:18;95455.75;;;8.80;nan
70072;BME280;57434;42.794;23.302;2023-05-24T03:17:20;95463.00;;;8.72;nan
70072;BME280;57434;42.794;23.302;2023-05-24T03:18:22;95462.63;;;8.65;nan
70072;BME280;57434;42.794;23.302;2023-05-24T03:19:24;95311.44;;;7.69;nan
70072;BME280;57434;42.794;23.302;2023-05-24T03:20:25;95398.06;;;8.33;nan
70072;BME280;57434;42.794;23.302;2023-05-24T03:21:27;95452.09;;;8.74;nan
70072;BME280;57434;42.794;23.302;2023-05-24T03:22:29;95464.00;;;8.90;nan
70072;BME280;57434;42.794;23.302;2023-05-24T03:23:31;95476.25;;;9.07;nan
70072;BME280;57434;42.794;23.302;2023-05-24T03:24:33;95469.38;;;9.08;nan
70072;BME280;57434;42.794;23.302;2023-05-24T03:25:35;95475.81;;;9.14;nan
70072;BME280;57434;42.794;23.302;2023-05-24T03:26:39;95388.03;;;8.56;nan
70072;BME280;57434;42.794;23.302;2023-05-24T03:27:41;95462.94;;;9.02;nan
70072;BME280;57434;42.794;23.302;2023-05-24T03:28:43;95513.09;;;9.20;nan
70072;BME280;57434;42.794;23.302;2023-05-24T03:29:45;95337.53;;;8.30;nan
70072;BME280;57434;42.794;23.302;2023-05-24T03:30:47;95472.66;;;9.21;nan
70072;BME280;57434;42.794;23.302;2023-05-24T03:31:50;95449.38;;;9.15;nan
70072;BME280;57434;42.794;23.302;2023-05-24T03:32:52;95441.75;;;9.15;nan
70072;BME280;57434;42.794;23.302;2023-05-24T03:33:54;95428.69;;;8.92;nan
70072;BME280;57434;42.794;23.302;2023-05-24T03:34:56;95431.28;;;8.75;nan
70072;BME280;57434;42.794;23.302;2023-05-24T03:35:58;95484.16;;;8.94;nan
70072;BME280;57434;42.794;23.302;2023-05-24T03:37:00;95293.72;;;7.72;nan
70072;BME280;57434;42.794;23.302;2023-05-24T03:38:02;95503.47;;;9.06;nan
70072;BME280;57434;42.794;23.302;2023-05-24T03:39:04;95439.09;;;8.71;nan
70072;BME280;57434;42.794;23.302;2023-05-24T03:40:06;95497.94;;;9.12;nan
70072;BME280;57434;42.794;23.302;2023-05-24T03:41:08;95321.72;;;7.92;nan
70072;BME280;57434;42.794;23.302;2023-05-24T03:42:10;95436.88;;;8.61;nan
70072;BME280;57434;42.794;23.302;2023-05-24T03:43:12;95475.34;;;8.80;nan
70072;BME280;57434;42.794;23.302;2023-05-24T03:44:14;95507.41;;;9.00;nan
70072;BME280;57434;42.794;23.302;2023-05-24T03:45:16;95492.56;;;8.94;nan
70072;BME280;57434;42.794;23.302;2023-05-24T03:46:24;95378.50;;;8.33;nan
70072;BME280;57434;42.794;23.302;2023-05-24T03:47:26;95488.41;;;9.04;nan
70072;BME280;57434;42.794;23.302;2023-05-24T03:48:28;95410.59;;;8.53;nan
70072;BME280;57434;42.794;23.302;2023-05-24T03:49:30;95524.84;;;9.24;nan
70072;BME280;57434;42.794;23.302;2023-05-24T03:50:32;95532.38;;;9.33;nan
70072;BME280;57434;42.794;23.302;2023-05-24T03:51:34;95496.47;;;9.31;nan
70072;BME280;57434;42.794;23.302;2023-05-24T03:52:36;95479.09;;;9.27;nan
70072;BME280;57434;42.794;23.302;2023-05-24T03:53:38;95488.34;;;9.33;nan
70072;BME280;57434;42.794;23.302;2023-05-24T03:54:40;95392.13;;;8.61;nan
70072;BME280;57434;42.794;23.302;2023-05-24T03:55:42;95506.69;;;9.34;nan
70072;BME280;57434;42.794;23.302;2023-05-24T03:56:44;95501.44;;;9.42;nan
70072;BME280;57434;42.794;23.302;2023-05-24T03:57:46;95530.97;;;9.43;nan
70072;BME280;57434;42.794;23.302;2023-05-24T03:58:48;95492.91;;;9.51;nan
70072;BME280;57434;42.794;23.302;2023-05-24T03:59:50;95379.66;;;8.76;nan
70072;BME280;57434;42.794;23.302;2023-05-24T04:00:52;95445.78;;;8.94;nan
70072;BME280;57434;42.794;23.302;2023-05-24T04:01:54;95367.19;;;8.57;nan
70072;BME280;57434;42.794;23.302;2023-05-24T04:02:55;95371.59;;;8.64;nan
70072;BME280;57434;42.794;23.302;2023-05-24T04:03:58;95506.53;;;9.43;nan
70072;BME280;57434;42.794;23.302;2023-05-24T04:05:00;95484.78;;;9.33;nan
70072;BME280;57434;42.794;23.302;2023-05-24T04:06:02;95433.72;;;8.88;nan
70072;BME280;57434;42.794;23.302;2023-05-24T04:07:04;95494.06;;;9.24;nan
70072;BME280;57434;42.794;23.302;2023-05-24T04:08:06;95362.09;;;8.56;nan
70072;BME280;57434;42.794;23.302;2023-05-24T04:09:08;95363.94;;;8.79;nan
70072;BME280;57434;42.794;23.302;2023-05-24T04:10:09;95353.56;;;8.85;nan
70072;BME280;57434;42.794;23.302;2023-05-24T04:11:11;95484.56;;;9.77;nan
70072;BME280;57434;42.794;23.302;2023-05-24T04:12:13;95369.69;;;9.10;nan
70072;BME280;57434;42.794;23.302;2023-05-24T04:13:15;95379.50;;;9.21;nan
70072;BME280;57434;42.794;23.302;2023-05-24T04:14:17;95510.75;;;10.14;nan
70072;BME280;57434;42.794;23.302;2023-05-24T04:15:19;95497.16;;;10.07;nan
70072;BME280;57434;42.794;23.302;2023-05-24T04:16:22;95504.25;;;10.29;nan
70072;BME280;57434;42.794;23.302;2023-05-24T04:17:24;95468.34;;;10.07;nan
70072;BME280;57434;42.794;23.302;2023-05-24T04:18:26;95491.50;;;10.28;nan
70072;BME280;57434;42.794;23.302;2023-05-24T04:19:28;95386.41;;;9.66;nan
70072;BME280;57434;42.794;23.302;2023-05-24T04:20:30;95471.38;;;10.29;nan
70072;BME280;57434;42.794;23.302;2023-05-24T04:21:34;95424.13;;;9.91;nan
70072;BME280;57434;42.794;23.302;2023-05-24T04:22:36;95449.06;;;10.14;nan
70072;BME280;57434;42.794;23.302;2023-05-24T04:23:38;95384.00;;;9.79;nan
70072;BME280;57434;42.794;23.302;2023-05-24T04:24:39;95511.34;;;10.50;nan
70072;BME280;57434;42.794;23.302;2023-05-24T04:25:41;95489.41;;;10.48;nan
70072;BME280;57434;42.794;23.302;2023-05-24T04:26:43;95493.31;;;10.57;nan
70072;BME280;57434;42.794;23.302;2023-05-24T04:27:45;95367.03;;;9.88;nan
70072;BME280;57434;42.794;23.302;2023-05-24T04:28:47;95412.44;;;10.24;nan
70072;BME280;57434;42.794;23.302;2023-05-24T04:29:49;95489.44;;;10.80;nan
70072;BME280;57434;42.794;23.302;2023-05-24T04:30:51;95481.63;;;10.64;nan
70072;BME280;57434;42.794;23.302;2023-05-24T04:31:53;95510.47;;;10.90;nan
70072;BME280;57434;42.794;23.302;2023-05-24T04:32:56;95515.75;;;10.82;nan
70072;BME280;57434;42.794;23.302;2023-05-24T04:33:58;95496.38;;;10.84;nan
70072;BME280;57434;42.794;23.302;2023-05-24T04:35:00;95373.00;;;10.01;nan
70072;BME280;57434;42.794;23.302;2023-05-24T04:36:02;95486.91;;;10.82;nan
70072;BME280;57434;42.794;23.302;2023-05-24T04:37:04;95509.25;;;10.97;nan
70072;BME280;57434;42.794;23.302;2023-05-24T04:38:06;95409.09;;;10.19;nan
70072;BME280;57434;42.794;23.302;2023-05-24T04:39:08;95477.50;;;10.59;nan
70072;BME280;57434;42.794;23.302;2023-05-24T04:40:10;95373.81;;;10.07;nan
70072;BME280;57434;42.794;23.302;2023-05-24T04:41:12;95472.34;;;10.78;nan
70072;BME280;57434;42.794;23.302;2023-05-24T04:42:14;95438.75;;;10.58;nan
70072;BME280;57434;42.794;23.302;2023-05-24T04:43:16;95495.09;;;10.85;nan
70072;BME280;57434;42.794;23.302;2023-05-24T04:44:18;95503.75;;;10.82;nan
70072;BME280;57434;42.794;23.302;2023-05-24T04:45:20;95384.59;;;10.14;nan
70072;BME280;57434;42.794;23.302;2023-05-24T04:46:22;95474.41;;;10.83;nan
70072;BME280;57434;42.794;23.302;2023-05-24T04:47:24;95493.44;;;10.99;nan
70072;BME280;57434;42.794;23.302;2023-05-24T04:48:26;95497.03;;;11.00;nan
70072;BME280;57434;42.794;23.302;2023-05-24T04:49:28;95493.22;;;11.03;nan
70072;BME280;57434;42.794;23.302;2023-05-24T04:50:30;95507.47;;;11.36;nan
70072;BME280;57434;42.794;23.302;2023-05-24T04:51:32;95390.31;;;10.63;nan
70072;BME280;57434;42.794;23.302;2023-05-24T04:52:34;95506.19;;;11.37;nan
70072;BME280;57434;42.794;23.302;2023-05-24T04:53:36;95544.59;;;11.51;nan
70072;BME280;57434;42.794;23.302;2023-05-24T04:54:38;95518.69;;;11.36;nan
70072;BME280;57434;42.794;23.302;2023-05-24T04:55:41;95537.47;;;11.56;nan
70072;BME280;57434;42.794;23.302;2023-05-24T04:56:43;95528.28;;;11.56;nan
70072;BME280;57434;42.794;23.302;2023-05-24T04:57:45;95487.50;;;11.29;nan
70072;BME280;57434;42.794;23.302;2023-05-24T04:58:47;95528.28;;;11.56;nan
70072;BME280;57434;42.794;23.302;2023-05-24T04:59:49;95384.66;;;10.57;nan
70072;BME280;57434;42.794;23.302;2023-05-24T05:00:51;95495.69;;;11.32;nan
70072;BME280;57434;42.794;23.302;2023-05-24T05:01:52;95491.25;;;11.14;nan
70072;BME280;57434;42.794;23.302;2023-05-24T05:02:54;95401.69;;;10.79;nan
70072;BME280;57434;42.794;23.302;2023-05-24T05:03:57;95432.97;;;11.04;nan
70072;BME280;57434;42.794;23.302;2023-05-24T05:04:59;95539.38;;;11.76;nan
70072;BME280;57434;42.794;23.302;2023-05-24T05:06:01;95427.63;;;11.06;nan
70072;BME280;57434;42.794;23.302;2023-05-24T05:07:03;95536.06;;;11.77;nan
70072;BME280;57434;42.794;23.302;2023-05-24T05:08:05;95529.97;;;11.90;nan
70072;BME280;57434;42.794;23.302;2023-05-24T05:09:08;95399.81;;;11.08;nan
70072;BME280;57434;42.794;23.302;2023-05-24T05:10:10;95399.84;;;11.13;nan
70072;BME280;57434;42.794;23.302;2023-05-24T05:11:13;95466.47;;;11.56;nan
70072;BME280;57434;42.794;23.302;2023-05-24T05:12:15;95530.06;;;12.07;nan
70072;BME280;57434;42.794;23.302;2023-05-24T05:13:17;95463.47;;;11.76;nan
70072;BME280;57434;42.794;23.302;2023-05-24T05:14:18;95514.28;;;12.26;nan
70072;BME280;57434;42.794;23.302;2023-05-24T05:15:22;95445.09;;;11.80;nan
70072;BME280;57434;42.794;23.302;2023-05-24T05:16:24;95434.31;;;11.68;nan
70072;BME280;57434;42.794;23.302;2023-05-24T05:17:26;95504.25;;;12.08;nan
70072;BME280;57434;42.794;23.302;2023-05-24T05:18:28;95431.75;;;11.64;nan
70072;BME280;57434;42.794;23.302;2023-05-24T05:19:30;95475.59;;;12.04;nan
70072;BME280;57434;42.794;23.302;2023-05-24T05:20:32;95546.09;;;12.60;nan
70072;BME280;57434;42.794;23.302;2023-05-24T05:21:34;95501.03;;;12.38;nan
70072;BME280;57434;42.794;23.302;2023-05-24T05:22:36;95432.34;;;11.85;nan
70072;BME280;57434;42.794;23.302;2023-05-24T05:23:38;95525.56;;;12.43;nan
70072;BME280;57434;42.794;23.302;2023-05-24T05:24:40;95525.63;;;12.65;nan
70072;BME280;57434;42.794;23.302;2023-05-24T05:25:42;95511.31;;;12.74;nan
70072;BME280;57434;42.794;23.302;2023-05-24T05:26:44;95507.47;;;12.77;nan
70072;BME280;57434;42.794;23.302;2023-05-24T05:27:46;95399.41;;;12.13;nan
70072;BME280;57434;42.794;23.302;2023-05-24T05:28:47;95503.13;;;12.82;nan
70072;BME280;57434;42.794;23.302;2023-05-24T05:29:49;95418.53;;;11.87;nan
70072;BME280;57434;42.794;23.302;2023-05-24T05:30:51;95524.38;;;12.66;nan
70072;BME280;57434;42.794;23.302;2023-05-24T05:31:53;95534.63;;;12.92;nan
70072;BME280;57434;42.794;23.302;2023-05-24T05:32:55;95401.22;;;12.11;nan
70072;BME280;57434;42.794;23.302;2023-05-24T05:33:57;95524.88;;;13.04;nan
70072;BME280;57434;42.794;23.302;2023-05-24T05:34:59;95537.44;;;13.14;nan
70072;BME280;57434;42.794;23.302;2023-05-24T05:36:01;95440.44;;;12.65;nan
70072;BME280;57434;42.794;23.302;2023-05-24T05:37:03;95511.31;;;13.19;nan
70072;BME280;57434;42.794;23.302;2023-05-24T05:38:05;95541.56;;;13.41;nan
70072;BME280;57434;42.794;23.302;2023-05-24T05:39:07;95511.81;;;13.29;nan
70072;BME280;57434;42.794;23.302;2023-05-24T05:40:09;95491.88;;;13.21;nan
70072;BME280;57434;42.794;23.302;2023-05-24T05:41:11;95421.50;;;12.87;nan
70072;BME280;57434;42.794;23.302;2023-05-24T05:42:13;95531.25;;;13.60;nan
70072;BME280;57434;42.794;23.302;2023-05-24T05:43:15;95539.22;;;13.62;nan
70072;BME280;57434;42.794;23.302;2023-05-24T05:44:18;95438.09;;;13.08;nan
70072;BME280;57434;42.794;23.302;2023-05-24T05:45:20;95406.88;;;13.00;nan
70072;BME280;57434;42.794;23.302;2023-05-24T05:46:22;95504.38;;;13.59;nan
70072;BME280;57434;42.794;23.302;2023-05-24T05:47:24;95484.88;;;13.72;nan
70072;BME280;57434;42.794;23.302;2023-05-24T05:48:26;95509.13;;;13.98;nan
70072;BME280;57434;42.794;23.302;2023-05-24T05:49:28;95536.22;;;14.17;nan
70072;BME280;57434;42.794;23.302;2023-05-24T05:50:30;95535.78;;;13.97;nan
70072;BME280;57434;42.794;23.302;2023-05-24T05:51:32;95521.94;;;14.04;nan
70072;BME280;57434;42.794;23.302;2023-05-24T05:52:34;95495.53;;;13.96;nan
70072;BME280;57434;42.794;23.302;2023-05-24T05:53:36;95535.16;;;14.26;nan
70072;BME280;57434;42.794;23.302;2023-05-24T05:54:38;95496.06;;;13.95;nan
70072;BME280;57434;42.794;23.302;2023-05-24T05:55:40;95486.13;;;13.77;nan
70072;BME280;57434;42.794;23.302;2023-05-24T05:56:43;95539.28;;;14.19;nan